createdAt,value
2022-12-18T00:00:31.911Z,22.17
2022-12-18T00:03:35.237Z,21.52
2022-12-18T00:06:38.147Z,24.00
2022-12-18T00:09:41.009Z,21.33
2022-12-18T00:12:43.626Z,20.75
2022-12-18T00:15:46.237Z,21.08
2022-12-18T00:18:55.068Z,22.23
2022-12-18T00:22:01.871Z,22.80
2022-12-18T00:25:04.944Z,22.63
2022-12-18T00:28:07.563Z,21.15
2022-12-18T00:31:15.300Z,20.40
2022-12-18T00:34:18.765Z,22.48
2022-12-18T00:37:21.421Z,21.00
2022-12-18T00:40:27.150Z,21.77
2022-12-18T00:43:30.158Z,22.85
2022-12-18T00:46:33.405Z,22.80
2022-12-18T00:49:36.202Z,21.63
2022-12-18T00:52:38.741Z,22.15
2022-12-18T00:55:41.852Z,21.93
2022-12-18T00:58:44.582Z,20.52
2022-12-18T01:01:47.937Z,23.45
2022-12-18T01:04:51.334Z,22.33
2022-12-18T01:07:57.261Z,23.02
2022-12-18T01:11:00.162Z,21.50
2022-12-18T01:14:02.830Z,20.63
2022-12-18T01:17:05.801Z,23.42
2022-12-18T01:20:10.949Z,21.27
2022-12-18T01:23:14.497Z,21.88
2022-12-18T01:26:17.433Z,23.87
2022-12-18T01:29:20.005Z,24.73
2022-12-18T01:32:23.179Z,20.90
2022-12-18T01:35:26.326Z,22.70
2022-12-18T01:38:30.494Z,25.02
2022-12-18T01:41:53.240Z,20.80
2022-12-18T01:45:28.451Z,20.55
2022-12-18T01:48:31.046Z,21.80
2022-12-18T01:51:34.189Z,20.10
2022-12-18T01:54:36.741Z,22.17
2022-12-18T01:57:41.404Z,20.47
2022-12-18T02:00:44.189Z,21.23
2022-12-18T02:03:47.834Z,20.85
2022-12-18T02:07:02.663Z,20.75
2022-12-18T02:10:24.775Z,21.30
2022-12-18T02:13:59.743Z,21.27
2022-12-18T02:17:13.043Z,20.43
2022-12-18T02:20:27.884Z,20.17
2022-12-18T02:23:49.301Z,19.77
2022-12-18T02:27:05.885Z,20.05
2022-12-18T02:30:09.372Z,20.50
2022-12-18T02:33:15.627Z,18.97
2022-12-18T02:36:21.682Z,19.58
2022-12-18T02:39:27.762Z,19.00
2022-12-18T02:42:38.292Z,20.23
2022-12-18T02:45:55.412Z,18.75
2022-12-18T02:49:28.880Z,20.97
2022-12-18T02:52:57.204Z,19.00
2022-12-18T02:56:05.822Z,18.95
2022-12-18T02:59:36.211Z,20.38
2022-12-18T03:02:43.186Z,18.20
2022-12-18T03:05:57.777Z,18.73
2022-12-18T03:09:15.530Z,20.52
2022-12-18T03:12:25.431Z,19.30
2022-12-18T03:15:41.037Z,19.27
2022-12-18T03:18:53.403Z,18.20
2022-12-18T03:21:58.400Z,19.00
2022-12-18T03:25:05.651Z,17.60
2022-12-18T03:28:13.333Z,17.58
2022-12-18T03:31:17.326Z,19.65
2022-12-18T03:34:31.902Z,18.80
2022-12-18T03:37:37.755Z,20.10
2022-12-18T03:40:47.077Z,19.17
2022-12-18T03:44:02.856Z,19.35
2022-12-18T03:47:20.553Z,18.00
2022-12-18T03:50:35.486Z,19.85
2022-12-18T03:53:55.038Z,17.43
2022-12-18T03:57:12.486Z,18.23
2022-12-18T04:00:18.765Z,17.65
2022-12-18T04:03:36.660Z,17.08
2022-12-18T04:06:41.001Z,18.42
2022-12-18T04:09:47.159Z,17.83
2022-12-18T04:12:50.872Z,19.00
2022-12-18T04:15:53.860Z,17.05
2022-12-18T04:18:58.742Z,17.73
2022-12-18T04:22:05.321Z,17.63
2022-12-18T04:25:15.225Z,17.30
2022-12-18T04:28:30.111Z,17.10
2022-12-18T04:31:33.416Z,18.45
2022-12-18T04:34:36.363Z,17.60
2022-12-18T04:37:38.997Z,17.67
2022-12-18T04:40:42.453Z,15.97
2022-12-18T04:43:53.321Z,18.08
2022-12-18T04:46:56.942Z,18.00
2022-12-18T04:50:00.106Z,17.05
2022-12-18T04:53:03.612Z,17.70
2022-12-18T04:56:15.208Z,17.60
2022-12-18T04:59:17.933Z,17.55
2022-12-18T05:02:21.643Z,17.52
2022-12-18T05:05:24.662Z,16.42
2022-12-18T05:08:28.519Z,17.88
2022-12-18T05:11:31.113Z,16.87
2022-12-18T05:14:33.700Z,17.10
2022-12-18T05:17:36.259Z,18.80
2022-12-18T05:20:38.868Z,17.90
2022-12-18T05:23:41.681Z,16.95
2022-12-18T05:26:44.536Z,17.87
2022-12-18T05:29:47.524Z,16.98
2022-12-18T05:32:50.050Z,15.02
2022-12-18T05:36:00.715Z,17.42
2022-12-18T05:39:04.179Z,17.27
2022-12-18T05:42:07.071Z,18.27
2022-12-18T05:45:10.573Z,17.85
2022-12-18T05:48:14.560Z,19.30
2022-12-18T05:51:19.070Z,18.52
2022-12-18T05:54:21.704Z,17.50
2022-12-18T05:57:24.518Z,17.77
2022-12-18T06:00:27.281Z,16.90
2022-12-18T06:03:33.906Z,18.33
2022-12-18T06:06:36.865Z,17.08
2022-12-18T06:09:40.008Z,17.15
2022-12-18T06:12:42.800Z,17.20
2022-12-18T06:15:46.666Z,19.42
2022-12-18T06:18:49.312Z,17.35
2022-12-18T06:21:52.357Z,16.02
2022-12-18T06:24:54.859Z,17.17
2022-12-18T06:27:57.376Z,18.30
2022-12-18T06:31:00.223Z,17.33
2022-12-18T06:34:06.065Z,18.98
2022-12-18T06:37:10.107Z,17.58
2022-12-18T06:40:13.064Z,17.65
2022-12-18T06:43:15.689Z,16.93
2022-12-18T06:46:18.366Z,18.02
2022-12-18T06:49:21.038Z,17.48
2022-12-18T06:52:23.630Z,17.92
2022-12-18T06:55:26.362Z,16.58
2022-12-18T06:58:29.246Z,18.53
2022-12-18T07:01:32.045Z,17.30
2022-12-18T07:04:34.763Z,18.45
2022-12-18T07:07:37.588Z,19.48
2022-12-18T07:10:47.538Z,16.58
2022-12-18T07:13:51.616Z,18.20
2022-12-18T07:16:54.337Z,17.02
2022-12-18T07:19:57.820Z,17.58
2022-12-18T07:23:02.569Z,18.33
2022-12-18T07:26:07.413Z,17.35
2022-12-18T07:29:10.193Z,18.77
2022-12-18T07:32:12.802Z,18.35
2022-12-18T07:35:19.454Z,18.20
2022-12-18T07:38:24.626Z,16.85
2022-12-18T07:41:27.341Z,17.17
2022-12-18T07:44:29.933Z,17.93
2022-12-18T07:47:36.295Z,16.27
2022-12-18T07:50:39.491Z,16.30
2022-12-18T07:53:42.842Z,17.20
2022-12-18T07:56:45.962Z,16.65
2022-12-18T07:59:48.957Z,17.93
2022-12-18T08:02:51.616Z,17.52
2022-12-18T08:05:58.987Z,17.15
2022-12-18T08:09:01.883Z,17.60
2022-12-18T08:12:04.784Z,17.33
2022-12-18T08:15:08.007Z,16.20
2022-12-18T08:18:14.229Z,16.90
2022-12-18T08:21:21.366Z,19.48
2022-12-18T08:24:24.100Z,16.88
2022-12-18T08:27:30.323Z,16.63
2022-12-18T08:30:33.136Z,16.47
2022-12-18T08:33:36.737Z,16.98
2022-12-18T08:36:39.308Z,17.45
2022-12-18T08:39:41.823Z,17.40
2022-12-18T08:43:03.403Z,17.48
2022-12-18T08:46:06.007Z,17.63
2022-12-18T08:49:10.031Z,17.65
2022-12-18T08:52:15.430Z,17.58
2022-12-18T08:55:18.067Z,17.85
2022-12-18T08:58:21.252Z,18.13
2022-12-18T09:01:24.282Z,17.73
2022-12-18T09:04:27.581Z,17.88
2022-12-18T09:07:30.136Z,19.05
2022-12-18T09:10:33.192Z,17.80
2022-12-18T09:13:35.719Z,18.38
2022-12-18T09:16:38.487Z,18.63
2022-12-18T09:19:41.068Z,17.60
2022-12-18T09:22:43.745Z,18.35
2022-12-18T09:25:46.366Z,17.73
2022-12-18T09:28:49.270Z,18.60
2022-12-18T09:31:53.106Z,15.57
2022-12-18T09:34:55.645Z,17.60
2022-12-18T09:37:58.399Z,18.33
2022-12-18T09:41:07.250Z,18.95
2022-12-18T09:44:27.724Z,18.33
2022-12-18T09:47:37.714Z,16.93
2022-12-18T09:50:41.610Z,17.42
2022-12-18T09:53:51.665Z,16.77
2022-12-18T09:56:55.241Z,17.02
2022-12-18T10:00:10.991Z,18.13
2022-12-18T10:03:17.627Z,18.30
2022-12-18T10:06:43.283Z,17.10
2022-12-18T10:10:08.279Z,19.83
2022-12-18T10:13:24.075Z,19.48
2022-12-18T10:16:41.856Z,18.35
2022-12-18T10:19:57.453Z,17.93
2022-12-18T10:23:09.282Z,19.17
2022-12-18T10:26:13.676Z,18.42
2022-12-18T10:29:18.280Z,18.35
2022-12-18T10:32:23.763Z,17.70
2022-12-18T10:35:30.883Z,17.83
2022-12-18T10:38:34.163Z,17.98
2022-12-18T10:41:36.735Z,17.90
2022-12-18T10:44:39.632Z,18.90
2022-12-18T10:47:48.614Z,18.40
2022-12-18T10:54:19.166Z,18.95
2022-12-18T10:57:27.717Z,18.85
2022-12-18T11:00:31.458Z,19.08
2022-12-18T11:04:01.812Z,17.70
2022-12-18T11:07:07.994Z,16.50
2022-12-18T11:10:20.287Z,16.65
2022-12-18T11:13:26.125Z,19.00
2022-12-18T11:16:32.016Z,18.20
2022-12-18T11:19:38.393Z,20.13
2022-12-18T11:22:45.511Z,17.90
2022-12-18T11:25:57.823Z,17.92
2022-12-18T11:29:15.537Z,18.48
2022-12-18T11:32:31.230Z,17.98
2022-12-18T11:35:54.715Z,16.88
2022-12-18T11:39:02.332Z,16.63
2022-12-18T11:42:13.648Z,16.98
2022-12-18T11:45:33.216Z,18.13
2022-12-18T11:48:45.786Z,18.23
2022-12-18T11:51:54.711Z,17.27
2022-12-18T11:55:01.008Z,17.57
2022-12-18T11:58:46.002Z,17.23
2022-12-18T12:02:13.022Z,18.83
2022-12-18T12:05:33.057Z,18.05
2022-12-18T12:09:17.069Z,16.95
2022-12-18T12:12:48.603Z,15.90
2022-12-18T12:16:10.319Z,18.02
2022-12-18T12:19:38.607Z,17.70
2022-12-18T12:23:21.538Z,16.83
2022-12-18T12:26:57.513Z,17.95
2022-12-18T12:30:10.250Z,16.27
2022-12-18T12:33:39.749Z,16.65
2022-12-18T12:36:57.050Z,15.88
2022-12-18T12:40:07.295Z,16.90
2022-12-18T12:43:28.264Z,17.45
2022-12-18T12:46:36.631Z,17.20
2022-12-18T12:49:41.064Z,17.17
2022-12-18T12:52:48.694Z,17.38
2022-12-18T12:55:53.258Z,17.67
2022-12-18T12:59:20.248Z,19.20
2022-12-18T13:02:34.700Z,15.77
2022-12-18T13:06:01.688Z,18.33
2022-12-18T13:09:06.263Z,15.90
2022-12-18T13:12:34.971Z,19.45
2022-12-18T13:15:40.852Z,16.92
2022-12-18T13:18:53.688Z,16.63
2022-12-18T13:21:57.646Z,16.25
2022-12-18T13:25:00.824Z,16.00
2022-12-18T13:28:17.789Z,19.13
2022-12-18T13:31:42.519Z,17.45
2022-12-18T13:34:45.949Z,16.27
2022-12-18T13:37:55.874Z,16.27
2022-12-18T13:41:05.278Z,16.52
2022-12-18T13:44:40.724Z,16.10
2022-12-18T13:47:44.895Z,16.15
2022-12-18T13:51:25.925Z,17.13
2022-12-18T13:54:41.533Z,16.27
2022-12-18T13:57:44.827Z,17.27
2022-12-18T14:00:47.641Z,15.57
2022-12-18T14:03:51.245Z,16.42
2022-12-18T14:06:58.556Z,17.00
2022-12-18T14:10:12.640Z,16.08
2022-12-18T14:13:35.661Z,17.25
2022-12-18T14:16:38.355Z,16.70
2022-12-18T14:19:50.344Z,15.20
2022-12-18T14:22:53.231Z,17.37
2022-12-18T14:25:58.634Z,16.88
2022-12-18T14:29:26.107Z,18.27
2022-12-18T14:32:28.610Z,19.45
2022-12-18T14:35:32.196Z,16.25
2022-12-18T14:38:36.895Z,17.70
2022-12-18T14:41:39.483Z,19.77
2022-12-18T14:45:05.326Z,17.65
2022-12-18T14:48:14.532Z,18.13
2022-12-18T14:51:23.688Z,19.05
2022-12-18T14:54:30.910Z,18.40
2022-12-18T14:57:39.315Z,15.95
2022-12-18T15:00:43.388Z,16.90
2022-12-18T15:03:46.853Z,17.95
2022-12-18T15:06:50.335Z,18.20
2022-12-18T15:10:12.824Z,16.37
2022-12-18T15:13:28.348Z,18.38
2022-12-18T15:16:31.495Z,17.02
2022-12-18T15:19:43.170Z,17.67
2022-12-18T15:22:49.347Z,18.77
2022-12-18T15:26:09.863Z,18.90
2022-12-18T15:29:23.134Z,18.23
2022-12-18T15:32:27.546Z,19.15
2022-12-18T15:35:31.816Z,17.08
2022-12-18T15:38:37.497Z,18.88
2022-12-18T15:41:41.245Z,19.20
2022-12-18T15:44:46.013Z,18.48
2022-12-18T15:47:51.057Z,19.80
2022-12-18T15:50:58.738Z,19.30
2022-12-18T15:54:07.716Z,21.10
2022-12-18T15:57:26.440Z,20.27
2022-12-18T16:00:30.594Z,19.15
2022-12-18T16:03:33.722Z,20.40
2022-12-18T16:07:05.246Z,19.20
2022-12-18T16:10:02.212Z,20.88
2022-12-18T16:13:06.545Z,20.87
2022-12-18T16:16:10.671Z,21.88
2022-12-18T16:19:14.720Z,22.27
2022-12-18T16:22:25.918Z,21.02
2022-12-18T16:25:30.540Z,24.10
2022-12-18T16:28:33.979Z,22.93
2022-12-18T16:31:39.859Z,23.05
2022-12-18T16:34:44.008Z,22.60
2022-12-18T16:37:48.080Z,22.83
2022-12-18T16:41:10.330Z,23.98
2022-12-18T16:44:15.752Z,22.83
2022-12-18T16:47:20.927Z,23.65
2022-12-18T16:50:25.258Z,23.27
2022-12-18T16:53:31.301Z,24.40
2022-12-18T16:56:36.385Z,22.17
2022-12-18T16:59:40.914Z,23.10
2022-12-18T17:02:45.994Z,22.73
2022-12-18T17:05:53.309Z,24.23
2022-12-18T17:08:59.254Z,24.70
2022-12-18T17:12:04.519Z,26.13
2022-12-18T17:15:10.494Z,23.33
2022-12-18T17:18:13.600Z,24.85
2022-12-18T17:21:17.262Z,23.88
2022-12-18T17:24:21.644Z,25.48
2022-12-18T17:27:24.740Z,23.50
2022-12-18T17:30:31.622Z,25.73
2022-12-18T17:33:36.663Z,24.40
2022-12-18T17:36:41.985Z,24.27
2022-12-18T17:39:45.756Z,24.85
2022-12-18T17:42:54.526Z,25.88
2022-12-18T17:46:06.782Z,24.97
2022-12-18T17:49:12.620Z,26.92
2022-12-18T17:52:17.236Z,26.70
2022-12-18T17:55:22.328Z,25.70
2022-12-18T17:58:25.762Z,26.33
2022-12-18T18:01:29.385Z,25.07
2022-12-18T18:04:33.105Z,28.67
2022-12-18T18:07:36.422Z,24.58
2022-12-18T18:10:41.931Z,25.77
2022-12-18T18:14:02.052Z,25.15
2022-12-18T18:17:07.757Z,24.40
2022-12-18T18:20:11.610Z,28.35
2022-12-18T18:23:14.670Z,26.05
2022-12-18T18:26:18.211Z,28.50
2022-12-18T18:29:26.934Z,27.15
2022-12-18T18:32:32.452Z,26.67
2022-12-18T18:39:01.737Z,26.60
2022-12-18T18:42:08.424Z,27.40
2022-12-18T18:45:11.414Z,27.75
2022-12-18T18:48:14.640Z,28.37
2022-12-18T18:51:21.489Z,28.85
2022-12-18T18:54:26.696Z,26.58
2022-12-18T18:57:31.348Z,28.05
2022-12-18T19:00:35.492Z,27.45
2022-12-18T19:03:39.900Z,26.43
2022-12-18T19:06:45.360Z,28.83
2022-12-18T19:09:52.540Z,27.95
2022-12-18T19:13:14.909Z,28.15
2022-12-18T19:16:20.039Z,27.30
2022-12-18T19:19:25.821Z,26.67
2022-12-18T19:22:29.894Z,28.05
2022-12-18T19:25:38.015Z,28.88
2022-12-18T19:28:45.528Z,28.52
2022-12-18T19:31:53.830Z,27.33
2022-12-18T19:34:59.598Z,26.83
2022-12-18T19:38:04.961Z,28.25
2022-12-18T19:41:09.657Z,27.73
2022-12-18T19:44:16.945Z,26.17
2022-12-18T19:47:21.568Z,27.33
2022-12-18T19:50:25.143Z,25.60
2022-12-18T19:53:29.141Z,29.02
2022-12-18T19:56:34.656Z,27.98
2022-12-18T19:59:40.016Z,26.95
2022-12-18T20:02:45.555Z,30.00
2022-12-18T20:05:48.781Z,26.27
2022-12-18T20:08:52.972Z,27.80
2022-12-18T20:12:03.641Z,24.83
2022-12-18T20:15:07.192Z,27.65
2022-12-18T20:18:11.404Z,29.55
2022-12-18T20:21:17.595Z,29.03
2022-12-18T20:24:21.914Z,26.70
2022-12-18T20:27:25.289Z,29.48
2022-12-18T20:30:28.716Z,27.88
2022-12-18T20:33:32.666Z,28.88
2022-12-18T20:36:37.728Z,27.17
2022-12-18T20:39:41.920Z,29.25
2022-12-18T20:42:46.697Z,28.48
2022-12-18T20:45:49.823Z,28.20
2022-12-18T20:48:56.295Z,26.23
2022-12-18T20:52:02.984Z,30.03
2022-12-18T20:55:08.297Z,26.35
2022-12-18T20:58:11.681Z,27.48
2022-12-18T21:01:17.701Z,29.00
2022-12-18T21:04:21.321Z,29.23
2022-12-18T21:07:24.431Z,27.80
2022-12-18T21:10:27.766Z,28.88
2022-12-18T21:13:30.569Z,27.35
2022-12-18T21:16:35.229Z,30.05
2022-12-18T21:19:38.305Z,27.98
2022-12-18T21:22:43.390Z,26.93
2022-12-18T21:25:46.636Z,27.67
2022-12-18T21:28:56.799Z,26.65
2022-12-18T21:31:59.486Z,25.23
2022-12-18T21:35:02.288Z,27.30
2022-12-18T21:38:05.773Z,28.93
2022-12-18T21:41:10.396Z,27.63
2022-12-18T21:44:17.179Z,29.02
2022-12-18T21:47:22.790Z,27.83
2022-12-18T21:50:26.613Z,26.38
2022-12-18T21:53:29.183Z,28.20
2022-12-18T21:56:51.466Z,27.55
2022-12-18T21:59:54.194Z,26.13
2022-12-18T22:03:04.909Z,27.20
2022-12-18T22:06:22.250Z,27.23
2022-12-18T22:09:25.812Z,28.77
2022-12-18T22:12:44.496Z,30.08
2022-12-18T22:15:50.203Z,28.05
2022-12-18T22:18:53.132Z,30.02
2022-12-18T22:21:55.779Z,28.33
2022-12-18T22:24:58.285Z,28.50
2022-12-18T22:28:19.741Z,29.70
2022-12-18T22:31:22.343Z,27.52
2022-12-18T22:34:25.003Z,26.90
2022-12-18T22:37:27.645Z,29.27
2022-12-18T22:40:30.197Z,31.20
2022-12-18T22:43:33.536Z,26.42
2022-12-18T22:46:40.666Z,27.83
2022-12-18T22:49:43.292Z,29.58
2022-12-18T22:52:45.845Z,29.33
2022-12-18T22:55:48.313Z,31.63
2022-12-18T22:58:52.039Z,29.08
2022-12-18T23:01:59.134Z,31.08
2022-12-18T23:05:01.997Z,28.80
2022-12-18T23:08:05.622Z,29.77
2022-12-18T23:11:08.761Z,29.10
2022-12-18T23:14:12.131Z,28.55
2022-12-18T23:17:15.078Z,28.77
2022-12-18T23:20:17.697Z,30.63
2022-12-18T23:23:20.526Z,29.85
2022-12-18T23:26:24.522Z,29.47
2022-12-18T23:29:27.098Z,30.45
2022-12-18T23:32:29.658Z,28.98
2022-12-18T23:35:34.847Z,29.92
2022-12-18T23:38:37.536Z,31.08
2022-12-18T23:41:40.293Z,32.13
2022-12-18T23:44:42.851Z,27.90
2022-12-18T23:47:47.936Z,31.58
2022-12-18T23:50:53.775Z,30.13
2022-12-18T23:53:59.207Z,30.55
2022-12-18T23:57:02.136Z,30.53
